Terminal Aerodrome Forecast
Issued by NWS

Home | Current Version | Previous Version | Text Only | Print | Product List | Glossary On
Versions: 1 2 3 4 5 6 7 8 9 10 11 12 13 14 15 16 17 18 19
590
FTUS45 KRIW 241726
TAFLND
TAF
KLND 241726Z 2418/2518 30006KT 6SM -RA OVC025
     FM241830 34011KT P6SM VCSH SCT030 BKN050
     FM250100 25007KT P6SM BKN060
     FM250900 VRB05KT P6SM FEW015 SCT060
     FM251500 VRB06KT P6SM SKC=

USA.gov is the U.S. government's official web portal to all federal, state and local government web resources and services.